sensor_id;sensor_type;location;lat;lon;timestamp;pressure;altitude;pressure_sealevel;temperature;humidity
15674;BME280;7937;48.090;16.212;2024-01-06T00:00:04;96508.69;;;1.85;100.00
15674;BME280;7937;48.090;16.212;2024-01-06T00:03:12;96511.69;;;1.89;100.00
15674;BME280;7937;48.090;16.212;2024-01-06T00:06:15;96511.22;;;1.92;100.00
15674;BME280;7937;48.090;16.212;2024-01-06T00:09:17;96511.63;;;1.95;100.00
15674;BME280;7937;48.090;16.212;2024-01-06T00:12:20;96514.63;;;1.99;100.00
15674;BME280;7937;48.090;16.212;2024-01-06T00:15:24;96515.19;;;2.01;100.00
15674;BME280;7937;48.090;16.212;2024-01-06T00:18:28;96521.84;;;2.03;100.00
15674;BME280;7937;48.090;16.212;2024-01-06T00:21:33;96525.84;;;2.06;100.00
15674;BME280;7937;48.090;16.212;2024-01-06T00:24:39;96527.25;;;2.09;100.00
15674;BME280;7937;48.090;16.212;2024-01-06T00:27:45;96524.19;;;2.12;100.00
15674;BME280;7937;48.090;16.212;2024-01-06T00:30:49;96518.72;;;2.13;100.00
15674;BME280;7937;48.090;16.212;2024-01-06T00:33:52;96518.28;;;2.16;100.00
15674;BME280;7937;48.090;16.212;2024-01-06T00:36:58;96526.53;;;2.20;100.00
15674;BME280;7937;48.090;16.212;2024-01-06T00:40:03;96522.69;;;2.22;100.00
15674;BME280;7937;48.090;16.212;2024-01-06T00:43:10;96510.94;;;2.25;100.00
15674;BME280;7937;48.090;16.212;2024-01-06T00:46:16;96501.38;;;2.30;100.00
15674;BME280;7937;48.090;16.212;2024-01-06T00:49:19;96501.50;;;2.36;100.00
15674;BME280;7937;48.090;16.212;2024-01-06T00:52:21;96497.28;;;2.35;100.00
15674;BME280;7937;48.090;16.212;2024-01-06T00:55:25;96512.78;;;2.43;100.00
15674;BME280;7937;48.090;16.212;2024-01-06T00:58:30;96519.22;;;2.47;100.00
15674;BME280;7937;48.090;16.212;2024-01-06T01:01:32;96517.53;;;2.52;100.00
15674;BME280;7937;48.090;16.212;2024-01-06T01:04:37;96518.25;;;2.59;100.00
15674;BME280;7937;48.090;16.212;2024-01-06T01:07:41;96532.78;;;2.62;100.00
15674;BME280;7937;48.090;16.212;2024-01-06T01:10:44;96535.19;;;2.64;100.00
15674;BME280;7937;48.090;16.212;2024-01-06T01:13:48;96535.75;;;2.66;100.00
15674;BME280;7937;48.090;16.212;2024-01-06T01:16:53;96525.94;;;2.61;100.00
15674;BME280;7937;48.090;16.212;2024-01-06T01:19:56;96527.53;;;2.62;100.00
15674;BME280;7937;48.090;16.212;2024-01-06T01:23:00;96523.88;;;2.63;100.00
15674;BME280;7937;48.090;16.212;2024-01-06T01:26:05;96530.72;;;2.64;100.00
15674;BME280;7937;48.090;16.212;2024-01-06T01:29:09;96531.53;;;2.65;100.00
15674;BME280;7937;48.090;16.212;2024-01-06T01:32:11;96530.72;;;2.64;100.00
15674;BME280;7937;48.090;16.212;2024-01-06T01:35:16;96536.78;;;2.65;100.00
15674;BME280;7937;48.090;16.212;2024-01-06T01:38:23;96516.06;;;2.56;100.00
15674;BME280;7937;48.090;16.212;2024-01-06T01:41:27;96526.28;;;2.65;100.00
15674;BME280;7937;48.090;16.212;2024-01-06T01:44:30;96517.16;;;2.67;100.00
15674;BME280;7937;48.090;16.212;2024-01-06T01:47:37;96508.09;;;2.63;100.00
15674;BME280;7937;48.090;16.212;2024-01-06T01:50:45;96507.28;;;2.63;100.00
15674;BME280;7937;48.090;16.212;2024-01-06T01:53:48;96493.91;;;2.64;100.00
15674;BME280;7937;48.090;16.212;2024-01-06T01:56:55;96495.53;;;2.65;100.00
15674;BME280;7937;48.090;16.212;2024-01-06T02:00:00;96486.03;;;2.64;100.00
15674;BME280;7937;48.090;16.212;2024-01-06T02:03:13;96480.78;;;2.64;100.00
15674;BME280;7937;48.090;16.212;2024-01-06T02:06:21;96476.31;;;2.65;100.00
15674;BME280;7937;48.090;16.212;2024-01-06T02:09:28;96474.47;;;2.65;100.00
15674;BME280;7937;48.090;16.212;2024-01-06T02:12:33;96477.13;;;2.65;100.00
15674;BME280;7937;48.090;16.212;2024-01-06T02:15:38;96471.84;;;2.65;100.00
15674;BME280;7937;48.090;16.212;2024-01-06T02:18:43;96458.56;;;2.60;100.00
15674;BME280;7937;48.090;16.212;2024-01-06T02:21:53;96472.31;;;2.62;100.00
15674;BME280;7937;48.090;16.212;2024-01-06T02:25:01;96468.09;;;2.61;100.00
15674;BME280;7937;48.090;16.212;2024-01-06T02:28:05;96475.97;;;2.61;100.00
15674;BME280;7937;48.090;16.212;2024-01-06T02:31:11;96474.34;;;2.60;100.00
15674;BME280;7937;48.090;16.212;2024-01-06T02:34:15;96464.63;;;2.61;100.00
15674;BME280;7937;48.090;16.212;2024-01-06T02:37:19;96457.88;;;2.53;100.00
15674;BME280;7937;48.090;16.212;2024-01-06T02:40:22;96469.69;;;2.62;100.00
15674;BME280;7937;48.090;16.212;2024-01-06T02:43:25;96471.06;;;2.65;100.00
15674;BME280;7937;48.090;16.212;2024-01-06T02:46:31;96460.34;;;2.66;100.00
15674;BME280;7937;48.090;16.212;2024-01-06T02:49:34;96447.50;;;2.58;100.00
15674;BME280;7937;48.090;16.212;2024-01-06T02:52:37;96450.75;;;2.72;100.00
15674;BME280;7937;48.090;16.212;2024-01-06T02:55:40;96441.09;;;2.66;100.00
15674;BME280;7937;48.090;16.212;2024-01-06T02:58:47;96456.81;;;2.72;100.00
15674;BME280;7937;48.090;16.212;2024-01-06T03:01:51;96441.03;;;2.72;100.00
15674;BME280;7937;48.090;16.212;2024-01-06T03:04:56;96458.19;;;2.75;100.00
15674;BME280;7937;48.090;16.212;2024-01-06T03:07:58;96444.84;;;2.76;100.00
15674;BME280;7937;48.090;16.212;2024-01-06T03:11:03;96441.97;;;2.78;100.00
15674;BME280;7937;48.090;16.212;2024-01-06T03:14:08;96447.47;;;2.76;100.00
15674;BME280;7937;48.090;16.212;2024-01-06T03:17:14;96448.03;;;2.78;100.00
15674;BME280;7937;48.090;16.212;2024-01-06T03:20:18;96448.03;;;2.78;100.00
15674;BME280;7937;48.090;16.212;2024-01-06T03:23:21;96449.63;;;2.79;100.00
15674;BME280;7937;48.090;16.212;2024-01-06T03:26:23;96450.44;;;2.80;100.00
15674;BME280;7937;48.090;16.212;2024-01-06T03:29:27;96444.59;;;2.78;100.00
15674;BME280;7937;48.090;16.212;2024-01-06T03:32:34;96453.84;;;2.80;100.00
15674;BME280;7937;48.090;16.212;2024-01-06T03:35:37;96467.84;;;2.81;100.00
15674;BME280;7937;48.090;16.212;2024-01-06T03:38:42;96462.34;;;2.82;100.00
15674;BME280;7937;48.090;16.212;2024-01-06T03:41:48;96451.59;;;2.84;100.00
15674;BME280;7937;48.090;16.212;2024-01-06T03:44:51;96449.56;;;2.86;100.00
15674;BME280;7937;48.090;16.212;2024-01-06T03:47:54;96453.78;;;2.87;100.00
15674;BME280;7937;48.090;16.212;2024-01-06T03:51:01;96455.63;;;2.87;100.00
15674;BME280;7937;48.090;16.212;2024-01-06T03:54:07;96451.72;;;2.89;100.00
15674;BME280;7937;48.090;16.212;2024-01-06T03:57:14;96464.69;;;2.91;100.00
15674;BME280;7937;48.090;16.212;2024-01-06T04:00:20;96476.78;;;2.92;100.00
15674;BME280;7937;48.090;16.212;2024-01-06T04:03:28;96466.00;;;2.81;100.00
15674;BME280;7937;48.090;16.212;2024-01-06T04:06:34;96455.69;;;2.80;100.00
15674;BME280;7937;48.090;16.212;2024-01-06T04:09:41;96484.22;;;2.95;100.00
15674;BME280;7937;48.090;16.212;2024-01-06T04:12:49;96487.66;;;2.95;100.00
15674;BME280;7937;48.090;16.212;2024-01-06T04:15:55;96490.09;;;2.97;100.00
15674;BME280;7937;48.090;16.212;2024-01-06T04:19:00;96490.66;;;2.99;100.00
15674;BME280;7937;48.090;16.212;2024-01-06T04:22:05;96474.38;;;2.90;100.00
15674;BME280;7937;48.090;16.212;2024-01-06T04:25:11;96496.50;;;3.01;100.00
15674;BME280;7937;48.090;16.212;2024-01-06T04:28:16;96489.47;;;2.95;100.00
15674;BME280;7937;48.090;16.212;2024-01-06T04:31:23;96494.69;;;3.01;100.00
15674;BME280;7937;48.090;16.212;2024-01-06T04:34:26;96479.44;;;2.92;100.00
15674;BME280;7937;48.090;16.212;2024-01-06T04:37:33;96499.47;;;3.04;100.00
15674;BME280;7937;48.090;16.212;2024-01-06T04:40:38;96501.91;;;3.06;100.00
15674;BME280;7937;48.090;16.212;2024-01-06T04:43:42;96493.03;;;3.00;100.00
15674;BME280;7937;48.090;16.212;2024-01-06T04:46:46;96515.19;;;3.11;100.00
15674;BME280;7937;48.090;16.212;2024-01-06T04:49:53;96514.41;;;3.10;100.00
15674;BME280;7937;48.090;16.212;2024-01-06T04:52:59;96507.50;;;3.09;100.00
15674;BME280;7937;48.090;16.212;2024-01-06T04:56:04;96504.06;;;3.09;100.00
15674;BME280;7937;48.090;16.212;2024-01-06T04:59:08;96508.16;;;3.05;100.00
15674;BME280;7937;48.090;16.212;2024-01-06T05:02:14;96510.00;;;3.04;100.00
15674;BME280;7937;48.090;16.212;2024-01-06T05:05:22;96504.97;;;3.03;100.00
15674;BME280;7937;48.090;16.212;2024-01-06T05:08:29;96510.00;;;3.04;100.00
15674;BME280;7937;48.090;16.212;2024-01-06T05:11:33;96519.16;;;3.02;100.00
15674;BME280;7937;48.090;16.212;2024-01-06T05:14:37;96511.25;;;3.02;100.00
15674;BME280;7937;48.090;16.212;2024-01-06T05:17:42;96505.19;;;3.01;100.00
15674;BME280;7937;48.090;16.212;2024-01-06T05:20:44;96507.59;;;3.03;100.00
15674;BME280;7937;48.090;16.212;2024-01-06T05:23:47;96502.09;;;3.04;100.00
15674;BME280;7937;48.090;16.212;2024-01-06T05:26:52;96493.66;;;3.02;100.00
15674;BME280;7937;48.090;16.212;2024-01-06T05:29:55;96505.19;;;3.01;100.00
15674;BME280;7937;48.090;16.212;2024-01-06T05:33:02;96513.28;;;3.00;100.00
15674;BME280;7937;48.090;16.212;2024-01-06T05:36:08;96522.00;;;3.00;100.00
15674;BME280;7937;48.090;16.212;2024-01-06T05:39:11;96508.03;;;3.00;100.00
15674;BME280;7937;48.090;16.212;2024-01-06T05:42:17;96501.16;;;2.99;100.00
15674;BME280;7937;48.090;16.212;2024-01-06T05:45:21;96513.09;;;3.01;100.00
15674;BME280;7937;48.090;16.212;2024-01-06T05:48:29;96511.25;;;3.02;100.00
15674;BME280;7937;48.090;16.212;2024-01-06T05:51:32;96518.34;;;3.01;100.00
15674;BME280;7937;48.090;16.212;2024-01-06T05:54:39;96517.56;;;3.01;100.00
15674;BME280;7937;48.090;16.212;2024-01-06T05:57:47;96524.41;;;3.02;100.00
15674;BME280;7937;48.090;16.212;2024-01-06T06:00:52;96528.66;;;3.03;100.00
15674;BME280;7937;48.090;16.212;2024-01-06T06:03:58;96534.94;;;3.02;100.00
15674;BME280;7937;48.090;16.212;2024-01-06T06:07:01;96539.16;;;3.03;100.00
15674;BME280;7937;48.090;16.212;2024-01-06T06:10:08;96527.63;;;3.04;100.00
15674;BME280;7937;48.090;16.212;2024-01-06T06:13:15;96526.00;;;3.03;100.00
15674;BME280;7937;48.090;16.212;2024-01-06T06:16:19;96530.47;;;3.02;100.00
15674;BME280;7937;48.090;16.212;2024-01-06T06:19:21;96520.19;;;3.01;100.00
15674;BME280;7937;48.090;16.212;2024-01-06T06:22:26;96522.00;;;3.00;100.00
15674;BME280;7937;48.090;16.212;2024-01-06T06:25:36;96521.19;;;3.00;100.00
15674;BME280;7937;48.090;16.212;2024-01-06T06:28:39;96529.06;;;3.00;100.00
15674;BME280;7937;48.090;16.212;2024-01-06T06:31:41;96537.56;;;3.02;100.00
15674;BME280;7937;48.090;16.212;2024-01-06T06:34:47;96532.75;;;2.99;100.00
15674;BME280;7937;48.090;16.212;2024-01-06T06:37:49;96539.59;;;3.00;100.00
15674;BME280;7937;48.090;16.212;2024-01-06T06:40:52;96538.81;;;2.99;100.00
15674;BME280;7937;48.090;16.212;2024-01-06T06:43:54;96542.03;;;3.01;100.00
15674;BME280;7937;48.090;16.212;2024-01-06T06:46:56;96543.41;;;3.04;100.00
15674;BME280;7937;48.090;16.212;2024-01-06T06:49:59;96557.34;;;3.04;100.00
15674;BME280;7937;48.090;16.212;2024-01-06T06:53:02;96556.34;;;3.05;100.00
15674;BME280;7937;48.090;16.212;2024-01-06T06:56:05;96542.09;;;2.95;100.00
15674;BME280;7937;48.090;16.212;2024-01-06T06:59:08;96561.25;;;3.02;100.00
15674;BME280;7937;48.090;16.212;2024-01-06T07:02:11;96562.28;;;3.01;100.00
15674;BME280;7937;48.090;16.212;2024-01-06T07:05:13;96565.91;;;3.00;100.00
15674;BME280;7937;48.090;16.212;2024-01-06T07:08:15;96567.59;;;2.94;100.00
15674;BME280;7937;48.090;16.212;2024-01-06T07:11:18;96565.78;;;2.95;100.00
15674;BME280;7937;48.090;16.212;2024-01-06T07:14:21;96566.56;;;2.95;100.00
15674;BME280;7937;48.090;16.212;2024-01-06T07:17:23;96553.75;;;2.87;100.00
15674;BME280;7937;48.090;16.212;2024-01-06T07:20:25;96574.69;;;2.94;100.00
15674;BME280;7937;48.090;16.212;2024-01-06T07:23:28;96572.28;;;2.92;100.00
15674;BME280;7937;48.090;16.212;2024-01-06T07:26:30;96571.91;;;2.89;100.00
15674;BME280;7937;48.090;16.212;2024-01-06T07:29:32;96577.56;;;2.92;100.00
15674;BME280;7937;48.090;16.212;2024-01-06T07:32:34;96582.81;;;2.92;100.00
15674;BME280;7937;48.090;16.212;2024-01-06T07:35:37;96585.22;;;2.94;100.00
15674;BME280;7937;48.090;16.212;2024-01-06T07:38:44;96583.59;;;2.93;100.00
15674;BME280;7937;48.090;16.212;2024-01-06T07:41:48;96584.97;;;2.95;100.00
15674;BME280;7937;48.090;16.212;2024-01-06T07:44:50;96565.63;;;2.90;100.00
15674;BME280;7937;48.090;16.212;2024-01-06T07:47:52;96575.94;;;2.91;100.00
15674;BME280;7937;48.090;16.212;2024-01-06T07:50:55;96592.69;;;2.97;100.00
15674;BME280;7937;48.090;16.212;2024-01-06T07:53:57;96583.03;;;2.91;100.00
15674;BME280;7937;48.090;16.212;2024-01-06T07:57:01;96591.28;;;2.94;100.00
15674;BME280;7937;48.090;16.212;2024-01-06T08:00:15;96604.56;;;2.99;100.00
15674;BME280;7937;48.090;16.212;2024-01-06T08:03:40;96602.53;;;3.01;100.00
15674;BME280;7937;48.090;16.212;2024-01-06T08:06:46;96605.38;;;3.00;100.00
15674;BME280;7937;48.090;16.212;2024-01-06T08:09:57;96607.19;;;2.99;100.00
15674;BME280;7937;48.090;16.212;2024-01-06T08:13:41;96613.06;;;3.01;100.00
15674;BME280;7937;48.090;16.212;2024-01-06T08:17:03;96614.44;;;3.04;100.00
15674;BME280;7937;48.090;16.212;2024-01-06T08:20:05;96612.41;;;3.06;100.00
15674;BME280;7937;48.090;16.212;2024-01-06T08:23:16;96615.03;;;3.06;100.00
15674;BME280;7937;48.090;16.212;2024-01-06T08:26:41;96618.47;;;3.06;100.00
15674;BME280;7937;48.090;16.212;2024-01-06T08:29:46;96612.97;;;3.08;100.00
15674;BME280;7937;48.090;16.212;2024-01-06T08:33:02;96608.88;;;3.12;100.00
15674;BME280;7937;48.090;16.212;2024-01-06T08:36:11;96608.50;;;3.08;100.00
15674;BME280;7937;48.090;16.212;2024-01-06T08:39:40;96615.38;;;3.09;100.00
15674;BME280;7937;48.090;16.212;2024-01-06T08:43:01;96617.59;;;3.13;100.00
15674;BME280;7937;48.090;16.212;2024-01-06T08:46:17;96612.41;;;3.06;100.00
15674;BME280;7937;48.090;16.212;2024-01-06T08:49:27;96609.84;;;2.99;100.00
15674;BME280;7937;48.090;16.212;2024-01-06T08:52:35;96638.84;;;3.11;100.00
15674;BME280;7937;48.090;16.212;2024-01-06T08:55:54;96618.53;;;3.00;100.00
15674;BME280;7937;48.090;16.212;2024-01-06T08:59:04;96645.56;;;3.07;100.00
15674;BME280;7937;48.090;16.212;2024-01-06T09:02:20;96644.47;;;3.15;100.00
15674;BME280;7937;48.090;16.212;2024-01-06T09:06:00;96649.38;;;3.11;100.00
15674;BME280;7937;48.090;16.212;2024-01-06T09:09:58;96656.69;;;3.09;100.00
15674;BME280;7937;48.090;16.212;2024-01-06T09:13:37;96629.78;;;3.07;100.00
15674;BME280;7937;48.090;16.212;2024-01-06T09:17:26;96660.91;;;3.10;100.00
15674;BME280;7937;48.090;16.212;2024-01-06T09:21:25;96658.13;;;3.23;100.00
15674;BME280;7937;48.090;16.212;2024-01-06T09:25:08;96664.94;;;3.13;100.00
15674;BME280;7937;48.090;16.212;2024-01-06T09:28:34;96665.09;;;3.18;100.00
15674;BME280;7937;48.090;16.212;2024-01-06T09:32:17;96659.91;;;3.11;100.00
15674;BME280;7937;48.090;16.212;2024-01-06T09:36:07;96662.22;;;3.19;100.00
15674;BME280;7937;48.090;16.212;2024-01-06T09:44:01;96668.25;;;3.26;100.00
15674;BME280;7937;48.090;16.212;2024-01-06T09:48:13;96665.09;;;3.18;100.00
15674;BME280;7937;48.090;16.212;2024-01-06T09:56:25;96672.31;;;3.22;100.00
15674;BME280;7937;48.090;16.212;2024-01-06T09:59:47;96655.59;;;3.17;100.00
15674;BME280;7937;48.090;16.212;2024-01-06T10:11:35;96664.06;;;3.19;100.00
15674;BME280;7937;48.090;16.212;2024-01-06T10:15:28;96662.75;;;3.09;100.00
15674;BME280;7937;48.090;16.212;2024-01-06T10:18:31;96669.78;;;3.16;100.00
15674;BME280;7937;48.090;16.212;2024-01-06T10:21:34;96668.94;;;3.15;100.00
15674;BME280;7937;48.090;16.212;2024-01-06T10:24:39;96671.00;;;3.13;100.00
15674;BME280;7937;48.090;16.212;2024-01-06T10:27:41;96682.19;;;3.08;100.00
15674;BME280;7937;48.090;16.212;2024-01-06T10:30:44;96681.63;;;3.06;100.00
15674;BME280;7937;48.090;16.212;2024-01-06T10:33:46;96679.19;;;3.05;100.00
15674;BME280;7937;48.090;16.212;2024-01-06T10:36:50;96668.81;;;2.92;100.00
15674;BME280;7937;48.090;16.212;2024-01-06T10:40:13;96682.53;;;2.94;100.00
15674;BME280;7937;48.090;16.212;2024-01-06T10:43:18;96691.47;;;2.93;100.00
15674;BME280;7937;48.090;16.212;2024-01-06T10:46:22;96677.47;;;2.74;100.00
15674;BME280;7937;48.090;16.212;2024-01-06T10:49:28;96680.19;;;2.85;100.00
15674;BME280;7937;48.090;16.212;2024-01-06T10:52:33;96675.38;;;2.82;100.00
15674;BME280;7937;48.090;16.212;2024-01-06T10:55:37;96682.47;;;2.82;100.00
15674;BME280;7937;48.090;16.212;2024-01-06T10:58:45;96675.00;;;2.79;100.00
15674;BME280;7937;48.090;16.212;2024-01-06T11:01:50;96665.88;;;2.81;100.00
15674;BME280;7937;48.090;16.212;2024-01-06T11:04:54;96671.28;;;2.87;100.00
15674;BME280;7937;48.090;16.212;2024-01-06T11:07:58;96652.66;;;2.88;100.00
15674;BME280;7937;48.090;16.212;2024-01-06T11:11:04;96658.63;;;2.95;100.00
15674;BME280;7937;48.090;16.212;2024-01-06T11:14:23;96647.69;;;2.98;100.00
15674;BME280;7937;48.090;16.212;2024-01-06T11:17:52;96643.69;;;2.96;100.00
15674;BME280;7937;48.090;16.212;2024-01-06T11:24:18;96642.84;;;2.95;100.00
15674;BME280;7937;48.090;16.212;2024-01-06T11:27:25;96650.41;;;2.92;100.00
15674;BME280;7937;48.090;16.212;2024-01-06T11:30:31;96643.31;;;2.92;100.00
15674;BME280;7937;48.090;16.212;2024-01-06T11:33:45;96633.03;;;2.91;100.00
15674;BME280;7937;48.090;16.212;2024-01-06T11:36:53;96634.00;;;2.90;100.00
15674;BME280;7937;48.090;16.212;2024-01-06T11:39:55;96626.44;;;2.81;100.00
15674;BME280;7937;48.090;16.212;2024-01-06T11:42:59;96631.03;;;2.86;100.00
15674;BME280;7937;48.090;16.212;2024-01-06T11:46:01;96631.47;;;2.83;100.00
15674;BME280;7937;48.090;16.212;2024-01-06T11:49:05;96626.44;;;2.81;100.00
15674;BME280;7937;48.090;16.212;2024-01-06T11:52:09;96637.94;;;2.80;100.00
15674;BME280;7937;48.090;16.212;2024-01-06T11:55:11;96636.16;;;2.81;100.00
15674;BME280;7937;48.090;16.212;2024-01-06T11:58:16;96640.16;;;2.83;100.00
15674;BME280;7937;48.090;16.212;2024-01-06T12:01:19;96626.72;;;2.92;100.00
15674;BME280;7937;48.090;16.212;2024-01-06T12:04:21;96640.97;;;2.84;100.00
15674;BME280;7937;48.090;16.212;2024-01-06T12:07:24;96640.16;;;2.83;100.00
15674;BME280;7937;48.090;16.212;2024-01-06T12:10:28;96637.59;;;2.77;100.00
15674;BME280;7937;48.090;16.212;2024-01-06T12:13:34;96640.38;;;2.82;100.00
15674;BME280;7937;48.090;16.212;2024-01-06T12:16:36;96640.28;;;2.70;100.00
15674;BME280;7937;48.090;16.212;2024-01-06T12:19:39;96637.06;;;2.68;100.00
15674;BME280;7937;48.090;16.212;2024-01-06T12:22:44;96643.13;;;2.69;100.00
15674;BME280;7937;48.090;16.212;2024-01-06T12:25:47;96639.44;;;2.76;100.00
15674;BME280;7937;48.090;16.212;2024-01-06T12:28:51;96637.50;;;2.65;100.00
15674;BME280;7937;48.090;16.212;2024-01-06T12:31:54;96622.06;;;2.50;100.00
15674;BME280;7937;48.090;16.212;2024-01-06T12:34:57;96639.94;;;2.67;100.00
15674;BME280;7937;48.090;16.212;2024-01-06T12:38:02;96639.69;;;2.68;100.00
15674;BME280;7937;48.090;16.212;2024-01-06T12:41:10;96635.91;;;2.64;100.00
15674;BME280;7937;48.090;16.212;2024-01-06T12:44:12;96635.31;;;2.62;100.00
15674;BME280;7937;48.090;16.212;2024-01-06T12:47:14;96643.63;;;2.59;100.00
15674;BME280;7937;48.090;16.212;2024-01-06T12:50:17;96626.97;;;2.65;100.00
15674;BME280;7937;48.090;16.212;2024-01-06T12:53:20;96639.41;;;2.58;100.00
15674;BME280;7937;48.090;16.212;2024-01-06T12:56:22;96638.16;;;2.61;100.00
15674;BME280;7937;48.090;16.212;2024-01-06T12:59:24;96641.75;;;2.66;100.00
15674;BME280;7937;48.090;16.212;2024-01-06T13:02:26;96646.00;;;2.67;100.00
15674;BME280;7937;48.090;16.212;2024-01-06T13:05:29;96641.03;;;2.77;100.00
15674;BME280;7937;48.090;16.212;2024-01-06T13:08:31;96636.03;;;2.69;100.00
15674;BME280;7937;48.090;16.212;2024-01-06T13:11:35;96650.44;;;2.67;100.00
15674;BME280;7937;48.090;16.212;2024-01-06T13:14:38;96643.66;;;2.77;100.00
15674;BME280;7937;48.090;16.212;2024-01-06T13:17:40;96636.28;;;2.68;100.00
15674;BME280;7937;48.090;16.212;2024-01-06T13:20:43;96647.50;;;2.75;100.00
15674;BME280;7937;48.090;16.212;2024-01-06T13:23:45;96642.47;;;2.73;100.00
15674;BME280;7937;48.090;16.212;2024-01-06T13:26:48;96639.13;;;2.84;100.00
15674;BME280;7937;48.090;16.212;2024-01-06T13:29:50;96627.28;;;2.75;100.00
15674;BME280;7937;48.090;16.212;2024-01-06T13:32:53;96644.25;;;2.79;100.00
15674;BME280;7937;48.090;16.212;2024-01-06T13:35:56;96639.28;;;2.90;100.00
15674;BME280;7937;48.090;16.212;2024-01-06T13:38:59;96643.19;;;3.05;100.00
15674;BME280;7937;48.090;16.212;2024-01-06T13:42:02;96631.34;;;2.96;100.00
15674;BME280;7937;48.090;16.212;2024-01-06T13:45:07;96632.56;;;2.94;100.00
15674;BME280;7937;48.090;16.212;2024-01-06T13:48:10;96640.75;;;3.04;100.00
15674;BME280;7937;48.090;16.212;2024-01-06T13:51:12;96630.16;;;3.10;100.00
15674;BME280;7937;48.090;16.212;2024-01-06T13:54:15;96632.13;;;2.97;100.00
15674;BME280;7937;48.090;16.212;2024-01-06T13:57:21;96647.31;;;3.13;100.00
15674;BME280;7937;48.090;16.212;2024-01-06T14:00:23;96642.06;;;3.13;100.00
15674;BME280;7937;48.090;16.212;2024-01-06T14:03:26;96644.03;;;2.99;100.00
15674;BME280;7937;48.090;16.212;2024-01-06T14:06:29;96650.56;;;2.97;100.00
15674;BME280;7937;48.090;16.212;2024-01-06T14:09:36;96650.41;;;2.92;100.00
15674;BME280;7937;48.090;16.212;2024-01-06T14:12:38;96649.59;;;2.91;100.00
15674;BME280;7937;48.090;16.212;2024-01-06T14:15:42;96645.22;;;3.03;100.00
15674;BME280;7937;48.090;16.212;2024-01-06T14:18:46;96650.47;;;3.03;100.00
15674;BME280;7937;48.090;16.212;2024-01-06T14:21:48;96650.09;;;3.00;100.00
15674;BME280;7937;48.090;16.212;2024-01-06T14:24:52;96647.75;;;3.10;100.00
15674;BME280;7937;48.090;16.212;2024-01-06T14:27:55;96642.94;;;3.07;100.00
15674;BME280;7937;48.090;16.212;2024-01-06T14:30:57;96649.25;;;3.06;100.00
15674;BME280;7937;48.090;16.212;2024-01-06T14:33:59;96662.44;;;2.99;100.00
15674;BME280;7937;48.090;16.212;2024-01-06T14:37:02;96629.63;;;2.83;100.00
15674;BME280;7937;48.090;16.212;2024-01-06T14:40:06;96659.31;;;3.09;100.00
15674;BME280;7937;48.090;16.212;2024-01-06T14:43:09;96637.81;;;2.94;100.00
15674;BME280;7937;48.090;16.212;2024-01-06T14:46:12;96654.13;;;3.02;100.00
15674;BME280;7937;48.090;16.212;2024-01-06T14:49:14;96650.91;;;3.00;100.00
15674;BME280;7937;48.090;16.212;2024-01-06T14:52:17;96652.31;;;3.21;100.00
15674;BME280;7937;48.090;16.212;2024-01-06T14:55:20;96654.03;;;3.09;100.00
15674;BME280;7937;48.090;16.212;2024-01-06T14:58:22;96655.22;;;3.13;100.00
15674;BME280;7937;48.090;16.212;2024-01-06T15:01:24;96659.75;;;3.06;100.00
15674;BME280;7937;48.090;16.212;2024-01-06T15:04:27;96656.63;;;3.16;100.00
15674;BME280;7937;48.090;16.212;2024-01-06T15:07:31;96658.50;;;3.08;100.00
15674;BME280;7937;48.090;16.212;2024-01-06T15:10:34;96658.28;;;3.10;100.00
15674;BME280;7937;48.090;16.212;2024-01-06T15:13:36;96661.28;;;3.14;100.00
15674;BME280;7937;48.090;16.212;2024-01-06T15:16:38;96656.03;;;3.14;100.00
15674;BME280;7937;48.090;16.212;2024-01-06T15:19:40;96655.59;;;3.17;100.00
15674;BME280;7937;48.090;16.212;2024-01-06T15:22:43;96648.88;;;3.02;100.00
15674;BME280;7937;48.090;16.212;2024-01-06T15:25:46;96660.91;;;3.10;100.00
15674;BME280;7937;48.090;16.212;2024-01-06T15:28:48;96655.59;;;3.17;100.00
15674;BME280;7937;48.090;16.212;2024-01-06T15:31:51;96659.09;;;3.10;100.00
15674;BME280;7937;48.090;16.212;2024-01-06T15:34:59;96657.00;;;3.01;100.00
15674;BME280;7937;48.090;16.212;2024-01-06T15:38:01;96653.75;;;2.99;100.00
15674;BME280;7937;48.090;16.212;2024-01-06T15:41:04;96655.34;;;3.00;100.00
15674;BME280;7937;48.090;16.212;2024-01-06T15:44:07;96653.19;;;2.97;100.00
15674;BME280;7937;48.090;16.212;2024-01-06T15:47:10;96668.72;;;2.98;100.00
15674;BME280;7937;48.090;16.212;2024-01-06T15:50:12;96668.16;;;2.96;100.00
15674;BME280;7937;48.090;16.212;2024-01-06T15:53:14;96662.66;;;2.98;100.00
15674;BME280;7937;48.090;16.212;2024-01-06T15:56:19;96656.03;;;3.14;100.00
15674;BME280;7937;48.090;16.212;2024-01-06T15:59:21;96637.41;;;2.97;100.00
15674;BME280;7937;48.090;16.212;2024-01-06T16:02:24;96654.84;;;3.09;100.00
15674;BME280;7937;48.090;16.212;2024-01-06T16:05:26;96654.66;;;3.11;100.00
15674;BME280;7937;48.090;16.212;2024-01-06T16:08:29;96655.66;;;3.10;100.00
15674;BME280;7937;48.090;16.212;2024-01-06T16:11:34;96647.84;;;3.03;100.00
15674;BME280;7937;48.090;16.212;2024-01-06T16:14:37;96655.59;;;3.17;100.00
15674;BME280;7937;48.090;16.212;2024-01-06T16:17:39;96651.94;;;3.18;100.00
15674;BME280;7937;48.090;16.212;2024-01-06T16:20:42;96646.38;;;3.26;100.00
15674;BME280;7937;48.090;16.212;2024-01-06T16:23:44;96645.88;;;3.17;100.00
15674;BME280;7937;48.090;16.212;2024-01-06T16:26:47;96646.59;;;3.24;100.00
15674;BME280;7937;48.090;16.212;2024-01-06T16:29:49;96644.84;;;3.18;100.00
15674;BME280;7937;48.090;16.212;2024-01-06T16:32:52;96655.22;;;3.13;100.00
15674;BME280;7937;48.090;16.212;2024-01-06T16:35:54;96645.81;;;3.05;100.00
15674;BME280;7937;48.090;16.212;2024-01-06T16:38:58;96660.56;;;3.06;100.00
15674;BME280;7937;48.090;16.212;2024-01-06T16:42:00;96647.56;;;3.12;100.00
15674;BME280;7937;48.090;16.212;2024-01-06T16:45:04;96656.34;;;3.05;100.00
15674;BME280;7937;48.090;16.212;2024-01-06T16:48:06;96647.97;;;3.08;100.00